Time;durP1;ratioP1;P1;durP2;ratioP2;P2;SDS_P1;SDS_P2;PMS_P1;PMS_P2;Temp;Humidity;BMP_temperature;BMP_pressure;BME280_temperature;BME280_humidity;BME280_pressure;Samples;Min_cycle;Max_cycle;Signal;HPM_P1;HPM_P2
2022/07/13 00:00:26;;;;;;;2.43;2.10;;;22.40;97.90;;;;;;5088426;28;20186;-67
2022/07/13 00:02:53;;;;;;;2.47;2.03;;;22.40;97.90;;;;;;5068895;28;20186;-67
2022/07/13 00:05:20;;;;;;;2.80;1.97;;;22.30;97.80;;;;;;5088060;28;20186;-69
2022/07/13 00:07:46;;;;;;;4.70;2.20;;;22.20;98.00;;;;;;5079730;28;20600;-68
2022/07/13 00:10:13;;;;;;;3.03;2.20;;;22.30;98.00;;;;;;5088170;28;20178;-69
2022/07/13 00:12:40;;;;;;;5.30;2.07;;;22.20;97.90;;;;;;5070392;28;20193;-69
2022/07/13 00:15:07;;;;;;;3.97;1.87;;;22.10;97.90;;;;;;5086966;28;20273;-71
2022/07/13 00:17:33;;;;;;;3.13;2.20;;;22.10;97.90;;;;;;5085920;28;21245;-69
2022/07/13 00:19:59;;;;;;;4.07;2.13;;;22.00;98.20;;;;;;5079814;28;20284;-71
2022/07/13 00:22:26;;;;;;;2.20;2.00;;;22.00;98.00;;;;;;5066339;28;21004;-69
2022/07/13 00:24:53;;;;;;;3.60;2.03;;;22.10;98.20;;;;;;5059391;28;20515;-68
2022/07/13 00:27:19;;;;;;;3.17;2.10;;;22.10;98.00;;;;;;5086281;28;20239;-69
2022/07/13 00:29:45;;;;;;;5.77;1.90;;;22.10;97.80;;;;;;5069038;28;20301;-69
2022/07/13 00:32:12;;;;;;;3.97;1.73;;;22.10;97.90;;;;;;5085107;28;20205;-71
2022/07/13 00:34:38;;;;;;;3.03;2.00;;;22.20;97.90;;;;;;5086849;28;20194;-69
2022/07/13 00:37:05;;;;;;;2.73;2.03;;;22.20;97.90;;;;;;5084825;28;20194;-71
2022/07/13 00:39:31;;;;;;;6.10;1.90;;;22.20;97.70;;;;;;5085987;28;20236;-69
2022/07/13 00:41:57;;;;;;;5.30;2.30;;;22.10;97.70;;;;;;5087900;28;20600;-71
2022/07/13 00:44:24;;;;;;;6.73;2.53;;;22.10;97.90;;;;;;5086171;28;20201;-69
2022/07/13 00:46:54;;;;;;;3.07;2.00;;;22.10;97.80;;;;;;5066466;28;20191;-68
2022/07/13 00:49:22;;;;;;;3.23;1.83;;;22.10;97.80;;;;;;5065934;28;20182;-70
2022/07/13 00:51:50;;;;;;;4.20;2.00;;;22.10;97.80;;;;;;5087099;28;20949;-69
2022/07/13 00:54:28;;;;;;;2.53;1.93;;;22.10;97.80;;;;;;5070085;28;20998;-71
2022/07/13 00:56:59;;;;;;;3.10;1.80;;;22.10;97.70;;;;;;5086899;28;20507;-69
2022/07/13 00:59:26;;;;;;;2.40;2.17;;;22.10;97.80;;;;;;5090503;28;20189;-69
2022/07/13 01:01:54;;;;;;;2.10;1.90;;;22.10;97.70;;;;;;5087553;28;20721;-68
2022/07/13 01:04:24;;;;;;;3.20;2.07;;;22.10;97.60;;;;;;5064177;28;20644;-72
2022/07/13 01:06:55;;;;;;;3.47;1.97;;;22.10;97.80;;;;;;5089849;28;20277;-68
2022/07/13 01:09:25;;;;;;;2.50;1.97;;;22.00;97.70;;;;;;5090483;28;20192;-69
2022/07/13 01:11:53;;;;;;;5.43;2.03;;;22.00;97.80;;;;;;5067782;28;20856;-68
2022/07/13 01:14:20;;;;;;;3.53;1.90;;;22.10;97.90;;;;;;5088054;28;20889;-71
2022/07/13 01:16:47;;;;;;;1.90;1.77;;;22.10;97.90;;;;;;5089825;28;20241;-68
2022/07/13 01:19:15;;;;;;;5.80;2.50;;;22.10;97.70;;;;;;5090324;28;20534;-69
2022/07/13 01:21:45;;;;;;;2.43;1.80;;;22.00;97.70;;;;;;5090207;28;20205;-69
2022/07/13 01:24:12;;;;;;;3.03;2.00;;;22.00;97.90;;;;;;5082725;28;20186;-68
2022/07/13 01:26:39;;;;;;;4.17;2.00;;;22.00;98.10;;;;;;5064261;28;20271;-70
2022/07/13 01:29:08;;;;;;;3.20;1.93;;;22.10;98.20;;;;;;5091032;28;20212;-68
2022/07/13 01:31:40;;;;;;;2.97;2.07;;;22.10;97.60;;;;;;5090131;28;20190;-69
2022/07/13 01:34:08;;;;;;;2.70;1.80;;;22.10;97.90;;;;;;5078132;28;20205;-70
2022/07/13 01:36:35;;;;;;;2.30;1.90;;;22.20;98.10;;;;;;5071509;28;20190;-71
2022/07/13 01:39:04;;;;;;;2.60;1.80;;;22.20;98.00;;;;;;5055987;28;20182;-69
2022/07/13 01:41:33;;;;;;;4.03;2.10;;;22.20;97.80;;;;;;5087762;28;20218;-71
2022/07/13 01:44:01;;;;;;;3.67;1.93;;;22.20;97.80;;;;;;5072148;28;20186;-68
2022/07/13 01:46:29;;;;;;;3.00;1.90;;;22.20;97.70;;;;;;5084591;28;20556;-69
2022/07/13 01:48:56;;;;;;;1.83;1.67;;;22.20;97.60;;;;;;5090289;28;20669;-70
2022/07/13 01:51:23;;;;;;;4.00;1.85;;;22.20;97.90;;;;;;5090975;28;20178;-69
2022/07/13 01:53:49;;;;;;;2.77;2.10;;;22.20;97.80;;;;;;5088774;28;20190;-69
2022/07/13 01:56:19;;;;;;;2.10;1.80;;;22.20;97.60;;;;;;5067768;28;20886;-69
2022/07/13 01:58:45;;;;;;;3.80;2.03;;;22.20;97.60;;;;;;5080254;28;20186;-69
2022/07/13 02:01:11;;;;;;;2.50;2.10;;;22.10;97.50;;;;;;5055449;28;20201;-69
2022/07/13 02:03:38;;;;;;;2.00;1.80;;;22.10;97.50;;;;;;5087708;28;20217;-68
2022/07/13 02:06:05;;;;;;;3.53;2.00;;;22.10;97.50;;;;;;5078975;28;20792;-68
2022/07/13 02:08:32;;;;;;;7.27;2.10;;;22.10;97.60;;;;;;5087963;28;20590;-69
2022/07/13 02:10:58;;;;;;;4.47;1.90;;;22.10;97.50;;;;;;5064321;28;20217;-69
2022/07/13 02:13:24;;;;;;;5.70;1.90;;;22.10;97.50;;;;;;5088714;28;20194;-69
2022/07/13 02:15:51;;;;;;;3.87;2.00;;;22.00;97.50;;;;;;5065655;28;20190;-68
2022/07/13 02:18:17;;;;;;;1.87;1.73;;;22.00;97.60;;;;;;5087465;28;20194;-68
2022/07/13 02:20:44;;;;;;;3.80;1.70;;;22.00;97.50;;;;;;5089471;28;20326;-69
2022/07/13 02:23:10;;;;;;;3.40;2.03;;;22.00;97.40;;;;;;5090345;28;20186;-69
2022/07/13 02:25:37;;;;;;;2.23;1.93;;;22.00;97.30;;;;;;5089405;28;20198;-71
2022/07/13 02:28:05;;;;;;;3.83;2.10;;;22.00;97.30;;;;;;5056388;28;20186;-70
2022/07/13 02:30:31;;;;;;;2.53;1.60;;;22.00;97.30;;;;;;5054917;28;20185;-69
2022/07/13 02:32:58;;;;;;;2.33;1.90;;;22.00;97.30;;;;;;5074284;28;20654;-69
2022/07/13 02:35:26;;;;;;;3.33;1.67;;;21.90;97.40;;;;;;5086913;28;20197;-68
2022/07/13 02:37:52;;;;;;;5.60;1.80;;;21.90;97.50;;;;;;5070328;28;20650;-69
2022/07/13 02:40:19;;;;;;;3.00;1.90;;;22.00;97.40;;;;;;5089822;28;20182;-68
2022/07/13 02:42:46;;;;;;;2.00;1.80;;;21.90;97.30;;;;;;5051728;28;20872;-68
2022/07/13 02:45:12;;;;;;;4.13;2.00;;;22.00;97.40;;;;;;5088080;28;20190;-70
2022/07/13 02:47:38;;;;;;;3.63;1.90;;;22.00;97.30;;;;;;5089011;28;20186;-69
2022/07/13 02:50:05;;;;;;;3.37;1.70;;;22.00;97.30;;;;;;5070453;28;20228;-68
2022/07/13 02:52:31;;;;;;;2.37;1.93;;;22.00;97.10;;;;;;5088723;28;20202;-71
2022/07/13 02:54:58;;;;;;;2.43;2.00;;;22.00;97.20;;;;;;5078541;28;20696;-69
2022/07/13 02:57:25;;;;;;;3.97;1.90;;;22.00;97.30;;;;;;5083770;28;20198;-68
2022/07/13 02:59:52;;;;;;;3.07;2.10;;;22.00;97.40;;;;;;5081592;28;20186;-69
2022/07/13 03:02:18;;;;;;;2.53;1.83;;;22.00;97.30;;;;;;5055833;28;20723;-69
2022/07/13 03:04:44;;;;;;;6.73;2.10;;;22.00;97.20;;;;;;5081102;28;20716;-68
2022/07/13 03:07:10;;;;;;;2.67;1.60;;;22.00;97.20;;;;;;5086901;28;20684;-69
2022/07/13 03:09:37;;;;;;;2.33;1.90;;;22.00;97.30;;;;;;5089068;28;20177;-70
2022/07/13 03:12:04;;;;;;;4.43;1.70;;;22.00;97.40;;;;;;5085744;28;20239;-69
2022/07/13 03:14:30;;;;;;;2.70;1.80;;;22.00;97.30;;;;;;5088240;28;20554;-70
2022/07/13 03:17:00;;;;;;;2.37;1.90;;;22.00;97.40;;;;;;5087957;28;20210;-69
2022/07/13 03:19:26;;;;;;;2.43;1.90;;;22.00;97.60;;;;;;5086225;28;20688;-69
2022/07/13 03:21:52;;;;;;;3.73;2.10;;;22.00;97.70;;;;;;5069712;28;20213;-68
2022/07/13 03:24:19;;;;;;;3.00;2.00;;;22.00;97.70;;;;;;5079801;28;20182;-69
2022/07/13 03:26:45;;;;;;;4.07;1.80;;;22.00;97.90;;;;;;5084506;28;20197;-70
2022/07/13 03:29:11;;;;;;;3.63;1.97;;;22.00;97.90;;;;;;5072913;28;20736;-68
2022/07/13 03:31:38;;;;;;;2.80;2.03;;;22.00;98.00;;;;;;5085669;28;20186;-70
2022/07/13 03:34:04;;;;;;;2.50;1.80;;;22.00;98.10;;;;;;5082118;28;20617;-69
2022/07/13 03:36:30;;;;;;;2.57;1.60;;;22.00;98.30;;;;;;5086992;28;20217;-69
2022/07/13 03:38:57;;;;;;;4.60;2.00;;;22.00;98.30;;;;;;5087184;28;20201;-69
2022/07/13 03:41:24;;;;;;;4.17;2.00;;;22.00;98.20;;;;;;5086838;28;20202;-70
2022/07/13 03:43:50;;;;;;;3.00;1.80;;;22.00;98.40;;;;;;5088713;28;20514;-70
2022/07/13 03:46:16;;;;;;;2.40;1.80;;;22.00;98.40;;;;;;5086662;28;20189;-69
2022/07/13 03:48:43;;;;;;;3.60;1.90;;;22.00;98.60;;;;;;5086173;28;20190;-69
2022/07/13 03:51:09;;;;;;;3.63;1.90;;;22.00;98.70;;;;;;5087797;28;20190;-69
2022/07/13 03:53:35;;;;;;;3.00;1.80;;;22.10;98.80;;;;;;5087258;28;20646;-68
2022/07/13 03:56:02;;;;;;;3.80;1.80;;;22.00;98.80;;;;;;5087685;28;20182;-69
2022/07/13 03:58:28;;;;;;;3.73;2.20;;;22.00;98.90;;;;;;5085808;28;20205;-69
2022/07/13 04:00:55;;;;;;;1.77;1.63;;;22.10;99.00;;;;;;5077104;28;20206;-69
2022/07/13 04:03:22;;;;;;;2.53;1.80;;;22.10;99.10;;;;;;5076957;28;20289;-69
2022/07/13 04:05:48;;;;;;;3.97;1.80;;;22.10;99.10;;;;;;5045542;28;20205;-68
2022/07/13 04:08:14;;;;;;;2.03;1.83;;;22.10;99.30;;;;;;5069906;28;20178;-70
2022/07/13 04:10:41;;;;;;;2.73;1.70;;;22.10;99.30;;;;;;5087406;28;20190;-70
2022/07/13 04:13:07;;;;;;;3.17;2.10;;;22.10;99.40;;;;;;5063379;28;20187;-71
2022/07/13 04:15:33;;;;;;;6.00;2.10;;;22.20;99.50;;;;;;5085625;28;20225;-70
2022/07/13 04:18:00;;;;;;;2.63;1.90;;;22.20;99.50;;;;;;5086384;28;20214;-69
2022/07/13 04:20:26;;;;;;;2.40;2.00;;;22.30;99.60;;;;;;5086501;28;20189;-69
2022/07/13 04:22:54;;;;;;;2.67;2.00;;;22.30;99.40;;;;;;5076174;28;20206;-69
2022/07/13 04:25:21;;;;;;;2.10;1.90;;;22.30;99.40;;;;;;5079640;28;20618;-71
2022/07/13 04:27:47;;;;;;;2.67;1.90;;;22.40;99.40;;;;;;5066358;28;20270;-69
2022/07/13 04:30:13;;;;;;;5.13;1.93;;;22.40;99.60;;;;;;5068935;28;20235;-71
2022/07/13 04:32:39;;;;;;;3.37;1.73;;;22.50;99.70;;;;;;5084400;28;20670;-69
2022/07/13 04:35:06;;;;;;;2.00;1.80;;;22.60;99.90;;;;;;5081561;28;21015;-69
2022/07/13 04:37:36;;;;;;;4.87;2.10;;;22.70;99.90;;;;;;5071165;28;20196;-71
2022/07/13 04:40:03;;;;;;;2.93;1.83;;;22.70;99.90;;;;;;5073855;28;20259;-69
2022/07/13 04:42:29;;;;;;;2.10;1.90;;;22.80;99.90;;;;;;5091427;28;20213;-69
2022/07/13 04:44:56;;;;;;;2.47;1.90;;;22.90;99.90;;;;;;5066884;28;20187;-69
2022/07/13 04:47:22;;;;;;;3.58;1.80;;;23.00;99.90;;;;;;5086956;28;20655;-71
2022/07/13 04:49:48;;;;;;;3.30;1.73;;;23.10;99.90;;;;;;5087246;28;20214;-69
2022/07/13 04:52:15;;;;;;;2.50;1.90;;;23.10;99.90;;;;;;5088823;28;20208;-70
2022/07/13 04:54:41;;;;;;;5.78;1.80;;;23.20;99.90;;;;;;5092030;28;20186;-69
2022/07/13 04:57:10;;;;;;;4.40;1.77;;;23.20;99.90;;;;;;5068132;28;20194;-69
2022/07/13 04:59:37;;;;;;;2.17;1.50;;;23.30;99.90;;;;;;5088972;28;20194;-70
2022/07/13 05:02:03;;;;;;;2.80;1.90;;;23.30;99.90;;;;;;5070667;28;20206;-72
2022/07/13 05:04:29;;;;;;;4.40;1.77;;;23.40;99.90;;;;;;5084947;28;20252;-69
2022/07/13 05:06:55;;;;;;;2.90;2.00;;;23.50;99.90;;;;;;5089711;28;20182;-70
2022/07/13 05:09:22;;;;;;;2.50;1.60;;;23.70;99.80;;;;;;5088901;28;20218;-69
2022/07/13 05:11:49;;;;;;;6.53;1.92;;;23.80;99.10;;;;;;5072778;28;20638;-70
2022/07/13 05:14:15;;;;;;;2.97;1.90;;;23.80;98.50;;;;;;5087066;28;20205;-70
2022/07/13 05:16:41;;;;;;;2.60;2.03;;;23.90;97.90;;;;;;5084743;28;20212;-69
2022/07/13 05:19:07;;;;;;;2.95;2.03;;;24.00;97.90;;;;;;5088721;28;20185;-69
2022/07/13 05:21:34;;;;;;;3.05;1.85;;;24.00;97.40;;;;;;5070860;28;20207;-69
2022/07/13 05:24:00;;;;;;;2.20;1.80;;;24.00;97.80;;;;;;5070664;28;20216;-72
2022/07/13 05:26:26;;;;;;;3.58;2.00;;;24.10;98.60;;;;;;5089776;28;20305;-70
2022/07/13 05:28:53;;;;;;;2.28;1.90;;;24.10;97.90;;;;;;5088807;28;20650;-69
2022/07/13 05:31:19;;;;;;;2.00;1.80;;;24.10;97.90;;;;;;5070265;28;20223;-70
2022/07/13 05:33:45;;;;;;;3.50;1.95;;;24.10;98.10;;;;;;5081304;28;20191;-71
2022/07/13 05:36:12;;;;;;;3.05;1.67;;;24.10;97.80;;;;;;5088220;28;20909;-70
2022/07/13 05:38:38;;;;;;;4.10;1.75;;;24.20;97.70;;;;;;5087972;28;20259;-72
2022/07/13 05:41:08;;;;;;;5.13;1.85;;;24.30;96.50;;;;;;5069401;28;20241;-69
2022/07/13 05:43:34;;;;;;;2.97;1.83;;;24.50;95.80;;;;;;5070935;28;20202;-70
2022/07/13 05:46:01;;;;;;;3.50;2.00;;;24.60;96.30;;;;;;5072070;28;20186;-69
2022/07/13 05:48:28;;;;;;;2.45;1.80;;;24.70;96.10;;;;;;5067191;28;20210;-72
2022/07/13 05:50:55;;;;;;;3.05;1.80;;;24.80;95.80;;;;;;5089006;28;20186;-70
2022/07/13 05:53:22;;;;;;;2.58;1.80;;;24.90;95.50;;;;;;5089645;28;20190;-69
2022/07/13 05:55:48;;;;;;;3.80;2.10;;;24.90;95.10;;;;;;5090983;28;20193;-70
2022/07/13 05:58:17;;;;;;;3.63;1.70;;;25.00;95.40;;;;;;5069942;28;20221;-69
2022/07/13 06:00:43;;;;;;;6.97;2.00;;;25.10;95.20;;;;;;5069987;28;20269;-69
2022/07/13 06:03:10;;;;;;;5.32;2.00;;;25.20;95.10;;;;;;5063392;28;20267;-69
2022/07/13 06:05:36;;;;;;;2.60;2.00;;;25.30;95.20;;;;;;5084074;28;20178;-69
2022/07/13 06:08:02;;;;;;;2.47;2.00;;;25.30;95.60;;;;;;5076200;28;20186;-69
2022/07/13 06:10:30;;;;;;;2.33;1.85;;;25.50;95.30;;;;;;5087650;28;20189;-72
2022/07/13 06:12:56;;;;;;;4.55;2.00;;;25.50;95.60;;;;;;5087958;28;20194;-66
2022/07/13 06:15:22;;;;;;;3.53;2.20;;;25.60;95.00;;;;;;5088682;28;20642;-70
2022/07/13 06:17:48;;;;;;;3.47;2.00;;;25.70;94.40;;;;;;5087763;28;20202;-70
2022/07/13 06:20:15;;;;;;;3.40;1.90;;;25.80;94.80;;;;;;5071004;28;20671;-70
2022/07/13 06:22:41;;;;;;;3.83;2.00;;;25.90;94.80;;;;;;5089599;28;20240;-68
2022/07/13 06:25:08;;;;;;;2.00;1.80;;;26.00;94.60;;;;;;5088768;28;20217;-69
2022/07/13 06:27:34;;;;;;;7.72;2.10;;;26.00;95.10;;;;;;5052657;28;20190;-67
2022/07/13 06:30:01;;;;;;;2.78;1.90;;;26.10;94.60;;;;;;5058169;28;20183;-66
2022/07/13 06:32:27;;;;;;;2.80;1.92;;;26.30;94.40;;;;;;5088333;28;20197;-66
2022/07/13 06:34:54;;;;;;;3.42;2.13;;;26.30;94.70;;;;;;5072025;28;20248;-68
2022/07/13 06:37:20;;;;;;;2.75;1.90;;;26.30;95.00;;;;;;5084679;28;20182;-67
2022/07/13 06:39:46;;;;;;;4.40;2.10;;;26.50;95.60;;;;;;5088897;28;20186;-69
2022/07/13 06:42:15;;;;;;;4.93;2.53;;;26.60;96.30;;;;;;5070830;28;20267;-68
2022/07/13 06:44:42;;;;;;;4.63;2.15;;;26.60;96.20;;;;;;5086469;28;20879;-66
2022/07/13 06:47:08;;;;;;;4.72;1.95;;;26.70;96.50;;;;;;5066981;28;20183;-71
2022/07/13 06:49:35;;;;;;;3.63;2.08;;;26.80;96.20;;;;;;5085451;28;20186;-70
2022/07/13 06:52:01;;;;;;;4.18;2.17;;;26.80;96.10;;;;;;5086754;28;20194;-68
2022/07/13 06:54:27;;;;;;;6.28;2.42;;;26.90;95.90;;;;;;5086316;28;20202;-69
2022/07/13 06:56:53;;;;;;;4.28;2.40;;;27.00;95.70;;;;;;5067746;28;20232;-66
2022/07/13 06:59:20;;;;;;;5.25;2.28;;;27.10;95.90;;;;;;5081306;28;20186;-69
2022/07/13 07:01:46;;;;;;;6.38;2.50;;;27.20;95.30;;;;;;5066365;28;20206;-67
2022/07/13 07:04:12;;;;;;;5.10;2.15;;;27.20;96.10;;;;;;5086162;28;20178;-70
2022/07/13 07:06:39;;;;;;;3.78;2.25;;;27.30;96.30;;;;;;5078159;28;20766;-69
2022/07/13 07:09:06;;;;;;;2.60;2.08;;;27.40;96.20;;;;;;5053642;28;20174;-69
2022/07/13 07:11:32;;;;;;;4.18;2.20;;;27.50;95.20;;;;;;5071183;28;20667;-69
2022/07/13 07:13:59;;;;;;;3.35;2.10;;;27.60;94.10;;;;;;5070659;28;20186;-71
2022/07/13 07:16:28;;;;;;;6.43;2.40;;;27.70;94.80;;;;;;5054053;28;20203;-68
2022/07/13 07:18:54;;;;;;;4.00;2.20;;;27.80;95.80;;;;;;5068244;28;20600;-69
2022/07/13 07:21:21;;;;;;;4.20;2.20;;;27.90;96.50;;;;;;5070744;28;20217;-69
2022/07/13 07:23:47;;;;;;;3.25;2.00;;;28.00;95.30;;;;;;5088969;28;20186;-69
2022/07/13 07:26:15;;;;;;;5.43;2.85;;;28.10;95.10;;;;;;5088124;28;20281;-69
2022/07/13 07:28:41;;;;;;;4.05;2.22;;;28.20;95.70;;;;;;5070036;28;20182;-69
2022/07/13 07:31:08;;;;;;;3.95;2.35;;;28.30;96.60;;;;;;5088839;28;20182;-69
2022/07/13 07:33:36;;;;;;;3.38;2.50;;;28.40;97.50;;;;;;5086515;28;20190;-69
2022/07/13 07:36:02;;;;;;;6.88;2.42;;;28.60;98.00;;;;;;5068178;28;20250;-70
2022/07/13 07:38:28;;;;;;;4.38;2.35;;;28.60;97.80;;;;;;5080111;28;20193;-68
2022/07/13 07:40:55;;;;;;;5.32;2.30;;;28.70;97.50;;;;;;5088387;28;20189;-68
2022/07/13 07:43:22;;;;;;;8.52;2.63;;;28.80;97.20;;;;;;5085443;28;20192;-68
2022/07/13 07:45:49;;;;;;;7.60;2.72;;;28.90;97.00;;;;;;5069267;28;20181;-69
2022/07/13 07:48:15;;;;;;;6.03;2.72;;;29.10;97.70;;;;;;5069059;28;20767;-69
2022/07/13 07:50:42;;;;;;;6.28;2.85;;;29.10;99.20;;;;;;5087380;28;20185;-70
2022/07/13 07:53:08;;;;;;;7.78;2.63;;;29.10;99.60;;;;;;5087234;28;20210;-69
2022/07/13 07:55:34;;;;;;;9.40;3.00;;;29.20;99.10;;;;;;5067919;28;20186;-70
2022/07/13 07:58:01;;;;;;;11.15;2.63;;;29.30;99.90;;;;;;5069560;28;20189;-69
2022/07/13 08:00:27;;;;;;;5.05;2.60;;;29.40;99.80;;;;;;5068856;28;20661;-69
2022/07/13 08:02:57;;;;;;;7.35;2.58;;;29.40;99.90;;;;;;5069467;28;20244;-69
2022/07/13 08:05:23;;;;;;;12.02;2.90;;;29.50;99.60;;;;;;5070040;28;20190;-70
2022/07/13 08:07:49;;;;;;;11.43;3.00;;;29.60;99.90;;;;;;5075771;28;20182;-70
2022/07/13 08:10:16;;;;;;;7.13;3.13;;;29.70;99.90;;;;;;5085555;28;20265;-69
2022/07/13 08:12:42;;;;;;;10.02;2.80;;;29.80;99.90;;;;;;5085635;28;20237;-69
2022/07/13 08:15:09;;;;;;;12.80;3.47;;;29.80;99.90;;;;;;5068570;28;20765;-69
2022/07/13 08:17:38;;;;;;;11.75;3.40;;;29.90;99.90;;;;;;5065526;28;20205;-70
2022/07/13 08:20:08;;;;;;;10.75;3.13;;;29.90;99.90;;;;;;5065444;28;20226;-69
2022/07/13 08:22:35;;;;;;;8.40;2.70;;;30.00;99.90;;;;;;5087822;28;20209;-70
2022/07/13 08:25:01;;;;;;;5.50;3.22;;;30.10;99.90;;;;;;5087539;28;20526;-69
2022/07/13 08:27:28;;;;;;;6.20;2.60;;;30.20;99.90;;;;;;5082345;28;20199;-68
2022/07/13 08:29:54;;;;;;;10.02;3.10;;;30.20;99.90;;;;;;5061876;28;20174;-69
2022/07/13 08:32:23;;;;;;;5.53;2.95;;;30.30;99.90;;;;;;5068899;28;20186;-71
2022/07/13 08:40:21;;;;;;;6.85;2.67;;;30.50;99.90;;;;;;5075448;28;20186;-70
2022/07/13 08:42:50;;;;;;;11.98;3.00;;;30.60;99.90;;;;;;5073490;28;20207;-71
2022/07/13 08:45:17;;;;;;;9.77;2.92;;;30.70;99.90;;;;;;5083004;28;20187;-68
2022/07/13 08:47:45;;;;;;;4.50;2.55;;;30.70;99.90;;;;;;5085652;28;20865;-68
2022/07/13 08:50:12;;;;;;;5.93;2.95;;;30.80;99.90;;;;;;5068345;28;20376;-69
2022/07/13 08:52:41;;;;;;;9.52;3.47;;;30.90;99.90;;;;;;5067983;28;20183;-69
2022/07/13 08:55:09;;;;;;;7.15;2.80;;;30.90;99.90;;;;;;5080707;28;20245;-69
2022/07/13 08:57:40;;;;;;;8.90;3.30;;;30.90;99.90;;;;;;5071358;28;20182;-69
2022/07/13 09:00:11;;;;;;;6.55;2.88;;;31.00;99.90;;;;;;5079490;28;20725;-70
2022/07/13 09:02:38;;;;;;;10.25;2.83;;;31.10;99.90;;;;;;5073504;28;20198;-68
2022/07/13 09:05:07;;;;;;;5.72;2.88;;;31.10;99.90;;;;;;5074557;28;20179;-69
2022/07/13 09:07:35;;;;;;;8.25;2.85;;;31.20;99.90;;;;;;5067426;28;20252;-68
2022/07/13 09:10:04;;;;;;;6.57;2.92;;;31.20;99.90;;;;;;5071370;28;20607;-68
2022/07/13 09:12:31;;;;;;;7.88;3.03;;;31.30;99.90;;;;;;5068660;28;20220;-69
2022/07/13 09:15:01;;;;;;;8.13;3.17;;;31.50;99.90;;;;;;5088026;28;20205;-68
2022/07/13 09:17:47;;;;;;;9.15;3.13;;;31.40;99.90;;;;;;5090972;28;20201;-68
2022/07/13 09:20:13;;;;;;;6.38;3.03;;;31.40;99.90;;;;;;5088081;28;20292;-68
2022/07/13 09:22:58;;;;;;;5.53;2.90;;;31.40;99.90;;;;;;5063244;28;20697;-70
2022/07/13 09:25:33;;;;;;;9.20;3.75;;;31.70;99.90;;;;;;5072698;28;20269;-68
2022/07/13 09:28:07;;;;;;;8.93;3.22;;;31.70;99.90;;;;;;5090714;28;20174;-67
2022/07/13 09:30:36;;;;;;;5.40;2.95;;;31.80;99.90;;;;;;5088896;28;20186;-68
2022/07/13 09:33:04;;;;;;;11.05;3.10;;;31.80;99.90;;;;;;5071495;28;20730;-69
2022/07/13 09:35:43;;;;;;;10.60;3.40;;;31.70;99.90;;;;;;5067415;28;20212;-71
2022/07/13 09:38:28;;;;;;;8.60;3.50;;;31.80;99.90;;;;;;5086575;28;20200;-69
2022/07/13 09:40:55;;;;;;;10.15;3.47;;;31.80;99.90;;;;;;5043840;28;20186;-71
2022/07/13 09:46:10;;;;;;;12.18;3.58;;;31.80;99.90;;;;;;5067955;28;20178;-68
2022/07/13 09:48:50;;;;;;;7.80;3.67;;;31.90;99.90;;;;;;5090525;28;20213;-68
2022/07/13 09:51:29;;;;;;;9.18;3.00;;;31.80;99.90;;;;;;5064333;28;20666;-68
2022/07/13 09:54:01;;;;;;;8.90;4.00;;;32.00;99.90;;;;;;5066691;28;20201;-68
2022/07/13 09:56:31;;;;;;;13.77;3.67;;;32.10;99.90;;;;;;5087517;28;20190;-68
2022/07/13 09:59:04;;;;;;;13.35;3.70;;;32.10;99.90;;;;;;5084890;28;20225;-68
2022/07/13 10:01:33;;;;;;;11.63;3.22;;;32.20;99.90;;;;;;5080582;28;20203;-68
2022/07/13 10:04:02;;;;;;;10.77;3.22;;;32.10;99.90;;;;;;5081677;28;20246;-68
2022/07/13 10:06:29;;;;;;;12.52;3.30;;;32.10;99.90;;;;;;5066252;28;20186;-69
2022/07/13 10:08:58;;;;;;;6.20;3.05;;;32.20;99.90;;;;;;5083303;28;20289;-69
2022/07/13 10:11:24;;;;;;;6.88;3.17;;;32.30;99.90;;;;;;5042981;28;20908;-69
2022/07/13 10:13:52;;;;;;;8.10;3.00;;;32.30;99.90;;;;;;5084482;28;20258;-68
2022/07/13 10:16:19;;;;;;;9.18;3.53;;;32.40;99.90;;;;;;5063118;28;20292;-70
2022/07/13 10:18:47;;;;;;;12.35;3.58;;;32.50;99.90;;;;;;5083750;28;20187;-67
2022/07/13 10:21:33;;;;;;;8.25;3.00;;;32.60;99.90;;;;;;5088266;28;20284;-68
2022/07/13 10:24:01;;;;;;;8.20;3.38;;;32.60;99.90;;;;;;5050529;28;20872;-69
2022/07/13 10:26:28;;;;;;;4.63;2.70;;;32.60;99.90;;;;;;5046872;28;20202;-68
2022/07/13 10:29:10;;;;;;;11.52;3.30;;;32.60;99.90;;;;;;5087123;28;20193;-68
2022/07/13 10:31:39;;;;;;;11.48;3.40;;;32.70;99.90;;;;;;5048445;28;20198;-70
2022/07/13 10:34:09;;;;;;;13.32;4.20;;;32.80;99.90;;;;;;5053720;28;20655;-68
2022/07/13 10:37:00;;;;;;;9.68;3.42;;;32.60;99.90;;;;;;5069320;28;20811;-68
2022/07/13 10:39:29;;;;;;;7.43;3.63;;;32.50;99.90;;;;;;5089927;28;20197;-68
2022/07/13 10:42:05;;;;;;;6.60;3.08;;;32.60;99.90;;;;;;5082728;28;20233;-70
2022/07/13 10:44:43;;;;;;;10.85;3.70;;;32.70;99.90;;;;;;5084570;28;20235;-70
2022/07/13 10:47:14;;;;;;;8.73;2.97;;;32.70;99.90;;;;;;5089189;28;20182;-70
2022/07/13 10:49:47;;;;;;;9.48;3.55;;;32.40;99.90;;;;;;5089463;28;20186;-70
2022/07/13 10:52:26;;;;;;;7.88;3.22;;;32.50;99.90;;;;;;5085755;28;20682;-70
2022/07/13 10:55:11;;;;;;;10.27;3.50;;;32.50;99.90;;;;;;5089364;28;20978;-68
2022/07/13 10:57:44;;;;;;;9.40;3.08;;;32.40;99.90;;;;;;5069869;28;20190;-68
2022/07/13 11:00:22;;;;;;;8.35;2.97;;;32.40;99.90;;;;;;5086264;28;20261;-69
2022/07/13 11:02:55;;;;;;;8.68;3.53;;;32.40;99.90;;;;;;5088369;28;20550;-69
2022/07/13 11:05:30;;;;;;;8.77;3.03;;;32.50;99.90;;;;;;5065832;28;20701;-68
2022/07/13 11:07:57;;;;;;;7.60;2.97;;;32.40;99.90;;;;;;5088904;28;20976;-68
2022/07/13 11:10:30;;;;;;;7.35;3.28;;;32.40;99.60;;;;;;5070950;28;20174;-71
2022/07/13 11:13:17;;;;;;;7.20;3.25;;;32.30;99.90;;;;;;5085911;28;20190;-69
2022/07/13 11:15:45;;;;;;;7.32;3.30;;;32.40;99.90;;;;;;5076997;28;20278;-69
2022/07/13 11:18:31;;;;;;;7.60;3.00;;;32.50;99.60;;;;;;5082832;28;20190;-68
2022/07/13 11:21:01;;;;;;;4.03;2.83;;;32.40;99.80;;;;;;5070454;28;20197;-69
2022/07/13 11:26:48;;;;;;;6.95;3.20;;;32.40;99.90;;;;;;5088036;28;20233;-69
2022/07/13 11:29:42;;;;;;;6.32;3.25;;;32.40;99.90;;;;;;5088659;28;20190;-68
2022/07/13 11:32:09;;;;;;;15.75;3.60;;;32.40;99.90;;;;;;5088083;28;20522;-71
2022/07/13 11:34:42;;;;;;;6.35;3.05;;;32.30;99.90;;;;;;5063078;28;20213;-69
2022/07/13 11:37:10;;;;;;;5.90;3.00;;;32.40;99.90;;;;;;5064526;28;20986;-70
2022/07/13 11:39:37;;;;;;;12.15;3.03;;;32.40;99.90;;;;;;5065700;28;20197;-70
2022/07/13 11:42:07;;;;;;;6.32;3.20;;;32.30;99.90;;;;;;5071022;28;20213;-68
2022/07/13 11:44:36;;;;;;;12.30;3.17;;;32.40;99.90;;;;;;5045130;28;20257;-68
2022/07/13 11:47:06;;;;;;;9.70;3.10;;;32.40;98.00;;;;;;5085534;28;20213;-69
2022/07/13 11:49:53;;;;;;;11.68;3.20;;;32.30;97.20;;;;;;5083424;28;20209;-68
2022/07/13 11:52:28;;;;;;;7.07;3.05;;;32.40;97.00;;;;;;5087695;28;20182;-69
2022/07/13 11:55:03;;;;;;;9.25;2.90;;;32.30;96.50;;;;;;5068982;28;20213;-70
2022/07/13 11:57:32;;;;;;;7.55;2.90;;;32.40;97.00;;;;;;5063428;28;20193;-70
2022/07/13 12:00:08;;;;;;;6.10;2.90;;;32.40;97.10;;;;;;5059938;28;20178;-68
2022/07/13 12:02:37;;;;;;;6.05;2.90;;;32.40;96.70;;;;;;5085592;28;20600;-69
2022/07/13 12:05:05;;;;;;;6.68;3.33;;;32.50;96.70;;;;;;5051651;28;20182;-70
2022/07/13 12:07:34;;;;;;;6.28;2.75;;;32.30;96.50;;;;;;5063464;28;20624;-68
2022/07/13 12:10:12;;;;;;;7.65;3.13;;;32.30;96.20;;;;;;5046775;28;20765;-68
2022/07/13 12:13:08;;;;;;;8.30;3.25;;;32.40;96.60;;;;;;5061536;28;20202;-68
2022/07/13 12:15:34;;;;;;;8.98;3.25;;;32.40;96.00;;;;;;5018068;28;20436;-72
2022/07/13 12:18:06;;;;;;;5.95;2.78;;;32.30;96.30;;;;;;5026745;28;20892;-70
2022/07/13 12:20:34;;;;;;;8.43;3.00;;;32.20;96.30;;;;;;5044663;28;20211;-69
2022/07/13 12:23:00;;;;;;;5.32;2.95;;;32.10;96.00;;;;;;5027837;28;20223;-70
2022/07/13 12:25:35;;;;;;;7.63;2.65;;;32.20;96.20;;;;;;5043984;28;20195;-68
2022/07/13 12:28:05;;;;;;;8.88;3.05;;;32.10;96.20;;;;;;5008449;28;20184;-68
2022/07/13 12:30:34;;;;;;;4.82;2.75;;;32.10;96.50;;;;;;5025552;28;20224;-71
2022/07/13 12:33:09;;;;;;;7.35;2.90;;;32.20;96.80;;;;;;5031382;28;20233;-69
2022/07/13 12:35:38;;;;;;;12.32;3.33;;;32.30;96.50;;;;;;5028353;28;20215;-68
2022/07/13 12:38:08;;;;;;;6.72;3.33;;;32.40;96.80;;;;;;5042295;28;20187;-69
2022/07/13 12:40:58;;;;;;;5.95;3.05;;;32.30;96.30;;;;;;5042557;28;20195;-70
2022/07/13 12:43:30;;;;;;;8.35;2.95;;;32.20;96.00;;;;;;5044974;28;20275;-69
2022/07/13 12:46:02;;;;;;;7.13;3.10;;;32.30;96.10;;;;;;5046685;28;20563;-69
2022/07/13 12:48:35;;;;;;;6.10;2.78;;;32.20;96.30;;;;;;5082019;28;20186;-68
2022/07/13 12:51:06;;;;;;;6.00;2.72;;;32.00;96.40;;;;;;5088992;28;20197;-68
2022/07/13 12:53:53;;;;;;;9.07;2.78;;;31.70;96.50;;;;;;5073015;28;20170;-68
2022/07/13 12:56:24;;;;;;;5.90;2.90;;;31.90;96.00;;;;;;5067772;28;20608;-68
2022/07/13 12:59:06;;;;;;;9.38;2.90;;;31.90;96.50;;;;;;5059164;28;20182;-69
2022/07/13 13:01:38;;;;;;;16.80;3.30;;;32.00;96.30;;;;;;5071442;28;20206;-68
2022/07/13 13:04:11;;;;;;;7.45;2.83;;;32.10;96.90;;;;;;5090817;28;20823;-69